createdAt,value
2019-02-19T00:01:05.699Z,52.04
2019-02-19T00:03:35.113Z,51.74
2019-02-19T00:06:04.577Z,51.92
2019-02-19T00:08:33.946Z,51.92
2019-02-19T00:11:03.408Z,52.36
2019-02-19T00:13:32.787Z,52.16
2019-02-19T00:16:02.217Z,52.84
2019-02-19T00:18:31.572Z,53.38
2019-02-19T00:21:01.063Z,53.48
2019-02-19T00:23:30.484Z,54.77
2019-02-19T00:25:59.906Z,54.26
2019-02-19T00:28:29.322Z,54.03
2019-02-19T00:30:58.747Z,53.59
2019-02-19T00:33:28.157Z,53.42
2019-02-19T00:35:57.547Z,53.83
2019-02-19T00:38:27.002Z,53.40
2019-02-19T00:40:56.374Z,53.16
2019-02-19T00:43:31.509Z,53.70
2019-02-19T00:46:00.902Z,56.17
2019-02-19T00:48:30.310Z,56.66
2019-02-19T00:50:59.677Z,56.21
2019-02-19T00:53:29.124Z,55.95
2019-02-19T00:55:58.521Z,55.20
2019-02-19T00:58:27.942Z,54.93
2019-02-19T01:00:57.314Z,55.12
2019-02-19T01:03:28.188Z,54.86
2019-02-19T01:05:57.586Z,56.20
2019-02-19T01:08:27.093Z,60.41
2019-02-19T01:10:56.446Z,61.41
2019-02-19T01:13:27.686Z,60.21
2019-02-19T01:15:57.338Z,59.65
2019-02-19T01:18:26.794Z,58.30
2019-02-19T01:20:56.193Z,57.30
2019-02-19T01:23:25.654Z,56.92
2019-02-19T01:25:55.150Z,56.55
2019-02-19T01:28:24.603Z,56.45
2019-02-19T01:30:54.115Z,56.15
2019-02-19T01:33:25.604Z,56.41
2019-02-19T01:35:54.714Z,56.14
2019-02-19T01:38:24.143Z,55.98
2019-02-19T01:40:53.526Z,56.21
2019-02-19T01:43:22.974Z,55.99
2019-02-19T01:45:52.367Z,55.93
2019-02-19T01:48:21.790Z,55.98
2019-02-19T01:50:51.152Z,56.31
2019-02-19T01:53:20.560Z,56.67
2019-02-19T01:55:50.000Z,56.69
2019-02-19T01:58:19.490Z,56.62
2019-02-19T02:00:48.882Z,56.84
2019-02-19T02:03:18.327Z,56.75
2019-02-19T02:05:47.686Z,56.40
2019-02-19T02:08:17.035Z,56.85
2019-02-19T02:10:46.431Z,56.92
2019-02-19T02:13:15.814Z,56.75
2019-02-19T02:15:45.202Z,56.47
2019-02-19T02:18:14.551Z,56.17
2019-02-19T02:20:43.940Z,56.45
2019-02-19T02:23:13.313Z,56.76
2019-02-19T02:25:42.710Z,56.04
2019-02-19T02:28:12.130Z,55.74
2019-02-19T02:30:41.613Z,57.44
2019-02-19T02:33:10.996Z,57.85
2019-02-19T02:35:40.380Z,57.40
2019-02-19T02:38:09.746Z,56.96
2019-02-19T02:40:39.144Z,56.98
2019-02-19T02:43:08.517Z,56.52
2019-02-19T02:45:37.924Z,56.52
2019-02-19T02:48:07.298Z,56.54
2019-02-19T02:50:36.744Z,56.80
2019-02-19T02:53:06.094Z,57.03
2019-02-19T02:55:35.667Z,57.03
2019-02-19T02:58:05.044Z,57.00
2019-02-19T03:00:34.569Z,56.83
2019-02-19T03:03:03.976Z,56.70
2019-02-19T03:05:33.578Z,56.70
2019-02-19T03:08:05.103Z,56.78
2019-02-19T03:10:34.503Z,57.50
2019-02-19T03:13:03.979Z,57.50
2019-02-19T03:15:33.427Z,57.28
2019-02-19T03:18:02.900Z,57.10
2019-02-19T03:20:32.306Z,57.63
2019-02-19T03:23:01.693Z,57.50
2019-02-19T03:25:31.114Z,57.19
2019-02-19T03:28:00.582Z,56.81
2019-02-19T03:30:30.048Z,57.03
2019-02-19T03:32:59.476Z,56.99
2019-02-19T03:35:28.974Z,56.75
2019-02-19T03:37:58.354Z,57.08
2019-02-19T03:40:27.715Z,57.08
2019-02-19T03:42:57.133Z,56.84
2019-02-19T03:45:26.539Z,56.76
2019-02-19T03:47:56.048Z,56.93
2019-02-19T03:50:25.399Z,57.07
2019-02-19T03:52:54.826Z,57.08
2019-02-19T03:55:24.195Z,57.26
2019-02-19T03:57:53.581Z,57.26
2019-02-19T04:00:22.958Z,57.56
2019-02-19T04:02:52.356Z,57.56
2019-02-19T04:05:21.743Z,57.51
2019-02-19T04:07:51.148Z,57.97
2019-02-19T04:10:20.667Z,57.48
2019-02-19T04:12:50.173Z,57.72
2019-02-19T04:15:19.564Z,58.01
2019-02-19T04:17:49.024Z,58.01
2019-02-19T04:20:18.468Z,57.92
2019-02-19T04:22:47.881Z,57.70
2019-02-19T04:25:17.265Z,58.50
2019-02-19T04:27:46.698Z,58.50
2019-02-19T04:30:16.065Z,58.54
2019-02-19T04:32:45.508Z,57.88
2019-02-19T04:35:14.878Z,57.88
2019-02-19T04:37:44.260Z,58.10
2019-02-19T04:40:13.693Z,58.10
2019-02-19T04:42:43.112Z,57.80
2019-02-19T04:45:12.666Z,58.50
2019-02-19T04:47:42.073Z,58.53
2019-02-19T04:50:11.519Z,58.33
2019-02-19T04:52:40.886Z,58.33
2019-02-19T04:55:10.321Z,58.42
2019-02-19T04:57:39.717Z,58.42
2019-02-19T05:00:11.216Z,58.10
2019-02-19T05:02:40.609Z,58.43
2019-02-19T05:05:10.031Z,58.39
2019-02-19T05:07:39.488Z,59.10
2019-02-19T05:10:09.023Z,59.03
2019-02-19T05:12:38.380Z,59.03
2019-02-19T05:15:07.953Z,58.52
2019-02-19T05:17:37.292Z,59.18
2019-02-19T05:20:07.534Z,59.36
2019-02-19T05:22:36.914Z,60.01
2019-02-19T05:25:06.442Z,59.85
2019-02-19T05:27:35.949Z,59.80
2019-02-19T05:30:05.502Z,59.70
2019-02-19T05:32:34.955Z,59.70
2019-02-19T05:35:04.376Z,59.73
2019-02-19T05:37:33.797Z,60.04
2019-02-19T05:40:03.166Z,60.46
2019-02-19T05:42:32.593Z,60.48
2019-02-19T05:45:02.011Z,60.35
2019-02-19T05:47:31.415Z,60.23
2019-02-19T05:50:00.840Z,59.68
2019-02-19T05:52:30.377Z,59.68
2019-02-19T05:54:59.889Z,60.78
2019-02-19T05:57:29.367Z,60.78
2019-02-19T05:59:58.753Z,61.23
2019-02-19T06:02:28.256Z,61.23
2019-02-19T06:04:57.603Z,61.54
2019-02-19T06:07:27.063Z,61.59
2019-02-19T06:09:56.416Z,61.92
2019-02-19T06:12:25.870Z,61.92
2019-02-19T06:14:55.229Z,61.43
2019-02-19T06:17:24.896Z,61.30
2019-02-19T06:19:55.028Z,61.10
2019-02-19T06:22:24.541Z,62.26
2019-02-19T06:24:53.955Z,62.51
2019-02-19T06:27:23.332Z,61.45
2019-02-19T06:29:52.753Z,61.45
2019-02-19T06:32:22.140Z,61.11
2019-02-19T06:34:51.609Z,61.09
2019-02-19T06:37:20.993Z,60.65
2019-02-19T06:39:50.458Z,60.76
2019-02-19T06:42:19.837Z,61.25
2019-02-19T06:44:49.289Z,61.25
2019-02-19T06:47:18.728Z,61.82
2019-02-19T06:49:48.135Z,61.30
2019-02-19T06:52:17.557Z,61.30
2019-02-19T06:54:47.007Z,61.83
2019-02-19T06:57:16.391Z,61.83
2019-02-19T06:59:45.787Z,61.12
2019-02-19T07:02:31.431Z,61.12
2019-02-19T07:05:02.415Z,62.39
2019-02-19T07:07:31.851Z,63.69
2019-02-19T07:10:01.264Z,62.41
2019-02-19T07:12:30.679Z,62.21
2019-02-19T07:15:00.311Z,62.21
2019-02-19T07:17:29.751Z,62.24
2019-02-19T07:19:59.208Z,62.76
2019-02-19T07:22:28.635Z,63.45
2019-02-19T07:24:58.114Z,65.11
2019-02-19T07:27:27.490Z,65.25
2019-02-19T07:29:56.929Z,65.25
2019-02-19T07:32:26.275Z,64.79
2019-02-19T07:34:55.712Z,64.91
2019-02-19T07:37:25.148Z,64.91
2019-02-19T07:39:54.759Z,64.79
2019-02-19T07:42:24.216Z,64.91
2019-02-19T07:44:53.627Z,68.53
2019-02-19T07:47:24.800Z,76.05
2019-02-19T07:49:54.139Z,84.72
2019-02-19T07:52:23.570Z,84.72
2019-02-19T07:54:52.969Z,88.69
2019-02-19T07:57:22.862Z,89.55
2019-02-19T07:59:52.281Z,88.22
2019-02-19T08:02:21.687Z,88.22
2019-02-19T08:04:51.072Z,85.45
2019-02-19T08:07:20.500Z,83.77
2019-02-19T08:09:49.862Z,83.77
2019-02-19T08:12:19.306Z,80.97
2019-02-19T08:14:48.710Z,79.35
2019-02-19T08:17:18.149Z,76.15
2019-02-19T08:19:48.755Z,75.66
2019-02-19T08:22:18.285Z,75.66
2019-02-19T08:24:47.656Z,74.08
2019-02-19T08:27:17.043Z,74.08
2019-02-19T08:29:46.420Z,72.03
2019-02-19T08:32:15.849Z,71.94
2019-02-19T08:34:45.211Z,71.62
2019-02-19T08:37:14.610Z,68.53
2019-02-19T08:39:43.980Z,68.53
2019-02-19T08:42:13.392Z,69.80
2019-02-19T08:44:42.738Z,70.29
2019-02-19T08:47:12.971Z,68.78
2019-02-19T08:49:43.012Z,69.53
2019-02-19T08:52:12.365Z,69.50
2019-02-19T08:54:41.791Z,69.19
2019-02-19T08:57:11.173Z,69.32
2019-02-19T08:59:40.598Z,68.31
2019-02-19T09:02:10.003Z,68.35
2019-02-19T09:04:39.434Z,67.40
2019-02-19T09:07:08.799Z,68.57
2019-02-19T09:09:38.238Z,68.83
2019-02-19T09:12:07.600Z,69.10
2019-02-19T09:14:36.992Z,68.99
2019-02-19T09:17:06.354Z,67.32
2019-02-19T09:19:35.817Z,66.73
2019-02-19T09:22:05.189Z,66.57
2019-02-19T09:24:34.572Z,66.11
2019-02-19T09:27:03.929Z,66.84
2019-02-19T09:29:33.337Z,65.83
2019-02-19T09:32:02.719Z,65.92
2019-02-19T09:34:32.114Z,66.52
2019-02-19T09:37:01.470Z,67.12
2019-02-19T09:39:30.910Z,66.85
2019-02-19T09:42:00.279Z,67.76
2019-02-19T09:44:29.692Z,68.80
2019-02-19T09:46:59.078Z,67.41
2019-02-19T09:49:28.570Z,67.75
2019-02-19T09:51:57.898Z,66.98
2019-02-19T09:54:27.334Z,67.12
2019-02-19T09:56:56.694Z,70.52
2019-02-19T09:59:26.078Z,71.34
2019-02-19T10:01:55.469Z,73.51
2019-02-19T10:04:24.826Z,74.79
2019-02-19T10:06:54.337Z,75.00
2019-02-19T10:09:23.835Z,74.28
2019-02-19T10:11:53.241Z,72.00
2019-02-19T10:14:22.782Z,72.39
2019-02-19T10:16:54.262Z,71.32
2019-02-19T10:19:25.994Z,66.85
2019-02-19T10:21:55.204Z,64.20
2019-02-19T10:24:24.746Z,60.49
2019-02-19T10:26:54.228Z,60.03
2019-02-19T10:29:23.590Z,63.81
2019-02-19T10:31:53.027Z,64.56
2019-02-19T10:34:22.430Z,67.21
2019-02-19T10:36:51.863Z,67.93
2019-02-19T10:39:21.237Z,68.98
2019-02-19T10:41:50.665Z,68.05
2019-02-19T10:44:20.237Z,67.38
2019-02-19T10:46:49.912Z,63.73
2019-02-19T10:49:19.457Z,60.60
2019-02-19T10:51:49.142Z,58.02
2019-02-19T10:54:18.592Z,57.92
2019-02-19T10:56:48.061Z,59.90
2019-02-19T10:59:17.512Z,57.74
2019-02-19T11:01:47.013Z,54.73
2019-02-19T11:04:16.378Z,55.24
2019-02-19T11:06:45.822Z,53.19
2019-02-19T11:09:15.202Z,51.16
2019-02-19T11:11:44.626Z,51.24
2019-02-19T11:14:14.081Z,51.66
2019-02-19T11:16:43.628Z,49.56
2019-02-19T11:19:12.990Z,51.90
2019-02-19T11:21:42.357Z,50.22
2019-02-19T11:24:11.817Z,51.56
2019-02-19T11:26:41.250Z,52.91
2019-02-19T11:29:10.774Z,53.57
2019-02-19T11:31:40.139Z,53.71
2019-02-19T11:34:09.547Z,54.21
2019-02-19T11:36:38.904Z,54.82
2019-02-19T11:39:08.368Z,54.18
2019-02-19T11:41:37.723Z,54.19
2019-02-19T11:44:07.114Z,53.48
2019-02-19T11:46:36.514Z,54.25
2019-02-19T11:49:05.990Z,54.86
2019-02-19T11:51:35.389Z,56.15
2019-02-19T11:54:04.845Z,56.68
2019-02-19T11:56:34.220Z,56.67
2019-02-19T11:59:03.640Z,56.20
2019-02-19T12:01:33.010Z,57.83
2019-02-19T12:04:02.477Z,57.38
2019-02-19T12:06:31.828Z,55.99
2019-02-19T12:09:01.240Z,57.48
2019-02-19T12:11:30.639Z,56.13
2019-02-19T12:14:00.049Z,57.40
2019-02-19T12:16:29.443Z,54.26
2019-02-19T12:18:58.835Z,51.06
2019-02-19T12:21:28.196Z,48.48
2019-02-19T12:23:57.701Z,44.87
2019-02-19T12:26:27.071Z,41.84
2019-02-19T12:28:56.525Z,38.87
2019-02-19T12:31:25.883Z,36.17
2019-02-19T12:33:55.239Z,37.08
2019-02-19T12:36:24.639Z,36.91
2019-02-19T12:38:53.980Z,39.04
2019-02-19T12:41:23.406Z,39.90
2019-02-19T12:43:52.838Z,38.47
2019-02-19T12:46:22.338Z,38.15
2019-02-19T12:48:54.737Z,36.98
2019-02-19T12:51:26.442Z,35.07
2019-02-19T12:53:54.145Z,34.90
2019-02-19T12:56:23.574Z,35.41
2019-02-19T12:58:52.930Z,35.89
2019-02-19T13:01:22.342Z,34.54
2019-02-19T13:03:51.699Z,33.36
2019-02-19T13:06:21.124Z,33.55
2019-02-19T13:08:50.560Z,32.44
2019-02-19T13:11:19.962Z,32.47
2019-02-19T13:13:49.330Z,33.15
2019-02-19T13:16:18.743Z,32.64
2019-02-19T13:18:48.193Z,32.55
2019-02-19T13:21:17.600Z,32.29
2019-02-19T13:23:47.006Z,30.50
2019-02-19T13:26:16.513Z,30.22
2019-02-19T13:28:45.931Z,29.63
2019-02-19T13:31:15.338Z,28.49
2019-02-19T13:33:44.790Z,30.21
2019-02-19T13:36:14.153Z,30.18
2019-02-19T13:38:43.584Z,30.12
2019-02-19T13:41:12.960Z,30.51
2019-02-19T13:43:42.432Z,29.99
2019-02-19T13:46:12.701Z,30.06
2019-02-19T13:48:42.140Z,30.67
2019-02-19T13:51:11.485Z,30.24
2019-02-19T13:54:05.805Z,30.93
2019-02-19T13:56:35.183Z,31.03
2019-02-19T13:59:04.569Z,31.35
2019-02-19T14:01:33.944Z,30.67
2019-02-19T14:04:03.334Z,29.95
2019-02-19T14:06:32.733Z,29.50
2019-02-19T14:09:02.150Z,28.51
2019-02-19T14:11:31.499Z,28.23
2019-02-19T14:14:18.753Z,28.56
2019-02-19T14:16:54.192Z,29.61
2019-02-19T14:19:57.972Z,29.84
2019-02-19T14:22:44.732Z,29.63
2019-02-19T14:25:33.019Z,28.77
2019-02-19T14:28:21.302Z,28.21
2019-02-19T14:31:09.640Z,28.11
2019-02-19T14:33:56.435Z,29.69
2019-02-19T14:36:43.258Z,30.13
2019-02-19T14:39:30.601Z,29.82
2019-02-19T14:42:17.387Z,30.36
2019-02-19T14:45:05.661Z,30.12
2019-02-19T14:47:52.874Z,30.70
2019-02-19T14:50:59.601Z,31.00
2019-02-19T14:53:50.642Z,31.14
2019-02-19T14:56:36.650Z,30.24
2019-02-19T14:59:30.683Z,31.16
2019-02-19T15:02:16.646Z,29.85
2019-02-19T15:05:11.640Z,29.08
2019-02-19T15:07:46.732Z,30.60
2019-02-19T15:10:50.101Z,29.85
2019-02-19T15:13:37.438Z,29.98
2019-02-19T15:16:22.999Z,30.82
2019-02-19T15:19:20.197Z,31.62
2019-02-19T15:21:57.617Z,32.10
2019-02-19T15:24:45.919Z,32.59
2019-02-19T15:27:37.502Z,33.39
2019-02-19T15:30:15.619Z,35.37
2019-02-19T15:33:09.730Z,35.28
2019-02-19T15:35:57.994Z,35.95
2019-02-19T15:38:55.432Z,36.55
2019-02-19T15:41:42.402Z,37.05
2019-02-19T15:44:28.694Z,37.17
2019-02-19T15:47:19.529Z,37.06
2019-02-19T15:50:13.693Z,37.04
2019-02-19T15:53:04.828Z,37.09
2019-02-19T15:55:53.677Z,37.46
2019-02-19T15:58:54.540Z,37.82
2019-02-19T16:01:42.397Z,38.12
2019-02-19T16:04:29.564Z,37.58
2019-02-19T16:07:17.854Z,37.32
2019-02-19T16:10:09.165Z,38.00
2019-02-19T16:12:56.273Z,38.46
2019-02-19T16:15:35.917Z,38.04
2019-02-19T16:18:30.044Z,39.11
2019-02-19T16:21:24.245Z,39.70
2019-02-19T16:24:24.815Z,40.02
2019-02-19T16:27:11.903Z,40.41
2019-02-19T16:30:03.998Z,40.86
2019-02-19T16:32:43.023Z,41.30
2019-02-19T16:35:37.089Z,42.11
2019-02-19T16:38:43.783Z,42.27
2019-02-19T16:41:30.923Z,42.22
2019-02-19T16:44:25.312Z,42.53
2019-02-19T16:47:31.630Z,43.05
2019-02-19T16:50:25.813Z,42.98
2019-02-19T16:53:13.050Z,42.76
2019-02-19T16:56:13.282Z,42.24
2019-02-19T16:59:07.225Z,42.62
2019-02-19T17:01:42.796Z,42.32
2019-02-19T17:04:31.122Z,42.34
2019-02-19T17:07:18.364Z,42.60
2019-02-19T17:10:15.742Z,41.85
2019-02-19T17:12:54.360Z,42.75
2019-02-19T17:15:41.471Z,42.91
2019-02-19T17:18:35.891Z,42.80
2019-02-19T17:21:22.973Z,42.88
2019-02-19T17:24:17.368Z,43.10
2019-02-19T17:27:08.652Z,43.69
2019-02-19T17:29:50.022Z,42.41
2019-02-19T17:32:40.846Z,42.88
2019-02-19T17:35:29.140Z,43.56
2019-02-19T17:38:14.862Z,43.90
2019-02-19T17:40:53.983Z,43.99
2019-02-19T17:43:34.544Z,43.18
2019-02-19T17:46:25.900Z,44.40
2019-02-19T17:49:13.205Z,45.11
2019-02-19T17:52:00.683Z,45.09
2019-02-19T17:55:01.045Z,45.43
2019-02-19T17:57:47.027Z,45.22
2019-02-19T18:00:31.803Z,45.14
2019-02-19T18:03:18.699Z,45.02
2019-02-19T18:06:05.772Z,46.03
2019-02-19T18:08:49.525Z,46.13
2019-02-19T18:11:40.844Z,46.43
2019-02-19T18:14:29.084Z,46.61
2019-02-19T18:17:11.561Z,46.40
2019-02-19T18:19:40.903Z,46.67
2019-02-19T18:22:10.310Z,47.19
2019-02-19T18:24:39.647Z,46.75
2019-02-19T18:27:09.039Z,47.15
2019-02-19T18:29:38.397Z,47.44
2019-02-19T18:32:07.789Z,47.59
2019-02-19T18:34:37.140Z,47.79
2019-02-19T18:37:06.497Z,47.91
2019-02-19T18:39:35.912Z,47.73
2019-02-19T18:42:05.279Z,47.82
2019-02-19T18:44:34.805Z,47.71
2019-02-19T18:47:08.194Z,48.10
2019-02-19T18:49:37.736Z,48.57
2019-02-19T18:52:07.296Z,48.81
2019-02-19T18:54:36.684Z,48.30
2019-02-19T18:57:06.056Z,48.28
2019-02-19T18:59:35.576Z,48.75
2019-02-19T19:02:04.932Z,49.43
2019-02-19T19:04:34.362Z,49.56
2019-02-19T19:07:03.763Z,49.70
2019-02-19T19:09:33.288Z,49.74
2019-02-19T19:12:02.634Z,50.26
2019-02-19T19:14:32.045Z,50.32
2019-02-19T19:17:01.383Z,50.22
2019-02-19T19:19:30.799Z,50.18
2019-02-19T19:22:00.205Z,50.44
2019-02-19T19:24:30.119Z,49.89
2019-02-19T19:26:59.556Z,49.75
2019-02-19T19:29:29.481Z,49.48
2019-02-19T19:31:58.947Z,49.67
2019-02-19T19:34:28.316Z,49.75
2019-02-19T19:36:57.754Z,49.25
2019-02-19T19:39:27.601Z,50.09
2019-02-19T19:41:57.566Z,52.26
2019-02-19T19:44:26.973Z,52.70
2019-02-19T19:46:56.362Z,53.54
2019-02-19T19:49:25.727Z,52.58
2019-02-19T19:51:55.225Z,53.22
2019-02-19T19:54:25.153Z,52.17
2019-02-19T19:56:54.535Z,51.51
2019-02-19T19:59:23.873Z,52.05
2019-02-19T20:01:53.277Z,52.15
2019-02-19T20:04:22.700Z,52.89
2019-02-19T20:06:52.066Z,52.38
2019-02-19T20:09:21.454Z,52.43
2019-02-19T20:11:50.883Z,53.93
2019-02-19T20:14:20.247Z,56.73
2019-02-19T20:16:49.622Z,56.53
2019-02-19T20:19:19.041Z,55.53
2019-02-19T20:21:48.422Z,56.58
2019-02-19T20:24:18.431Z,58.09
2019-02-19T20:26:47.798Z,59.36
2019-02-19T20:29:17.213Z,58.07
2019-02-19T20:31:46.626Z,56.35
2019-02-19T20:34:16.135Z,55.44
2019-02-19T20:36:45.513Z,54.86
2019-02-19T20:39:14.918Z,54.38
2019-02-19T20:41:44.296Z,54.13
2019-02-19T20:44:13.762Z,53.99
2019-02-19T20:46:43.179Z,53.92
2019-02-19T20:49:12.566Z,53.38
2019-02-19T20:51:41.920Z,53.48
2019-02-19T20:54:11.367Z,53.32
2019-02-19T20:56:40.898Z,53.07
2019-02-19T20:59:10.408Z,53.19
2019-02-19T21:01:39.803Z,53.24
2019-02-19T21:04:09.212Z,53.20
2019-02-19T21:06:38.548Z,52.76
2019-02-19T21:09:08.233Z,52.79
2019-02-19T21:11:37.729Z,53.15
2019-02-19T21:14:07.106Z,53.27
2019-02-19T21:16:36.561Z,53.04
2019-02-19T21:19:05.907Z,53.09
2019-02-19T21:21:35.282Z,53.43
2019-02-19T21:24:04.616Z,52.42
2019-02-19T21:26:33.994Z,53.45
2019-02-19T21:29:03.331Z,53.60
2019-02-19T21:31:32.778Z,53.51
2019-02-19T21:34:02.113Z,53.14
2019-02-19T21:36:31.542Z,53.43
2019-02-19T21:39:00.912Z,53.67
2019-02-19T21:41:30.335Z,53.66
2019-02-19T21:43:59.673Z,53.72
2019-02-19T21:46:29.076Z,53.63
2019-02-19T21:48:58.425Z,53.90
2019-02-19T21:51:28.242Z,53.79
2019-02-19T21:53:57.725Z,54.19
2019-02-19T21:56:27.094Z,53.80
2019-02-19T21:58:56.513Z,53.95
2019-02-19T22:01:25.907Z,54.77
2019-02-19T22:03:55.246Z,55.09
2019-02-19T22:06:24.604Z,55.26
2019-02-19T22:08:53.963Z,54.30
2019-02-19T22:11:23.344Z,54.85
2019-02-19T22:13:52.722Z,55.05
2019-02-19T22:16:22.056Z,54.88
2019-02-19T22:18:51.443Z,55.74
2019-02-19T22:21:39.649Z,55.71
2019-02-19T22:24:09.036Z,55.57
2019-02-19T22:26:38.370Z,55.35
2019-02-19T22:29:07.760Z,55.87
2019-02-19T22:31:37.100Z,55.80
2019-02-19T22:34:06.488Z,55.80
2019-02-19T22:36:35.832Z,56.57
2019-02-19T22:39:06.500Z,56.92
2019-02-19T22:41:36.008Z,57.57
2019-02-19T22:44:05.430Z,57.57
2019-02-19T22:46:34.767Z,56.86
2019-02-19T22:49:04.197Z,57.64
2019-02-19T22:51:33.537Z,57.99
2019-02-19T22:54:07.889Z,57.85
2019-02-19T22:56:42.463Z,57.66
2019-02-19T22:59:11.887Z,57.33
2019-02-19T23:01:47.729Z,58.01
2019-02-19T23:04:17.154Z,60.47
2019-02-19T23:06:46.490Z,59.03
2019-02-19T23:09:15.883Z,58.73
2019-02-19T23:11:45.270Z,58.80
2019-02-19T23:14:14.699Z,58.39
2019-02-19T23:16:44.037Z,58.86
2019-02-19T23:19:13.422Z,58.38
2019-02-19T23:21:42.772Z,57.93
2019-02-19T23:24:12.149Z,58.54
2019-02-19T23:26:41.493Z,58.35
2019-02-19T23:29:10.923Z,57.89
2019-02-19T23:31:40.233Z,57.92
2019-02-19T23:34:09.579Z,58.45
2019-02-19T23:36:43.302Z,58.36
2019-02-19T23:39:12.692Z,58.47
2019-02-19T23:41:42.027Z,57.80
2019-02-19T23:44:11.383Z,58.70
2019-02-19T23:46:40.811Z,58.73
2019-02-19T23:49:10.147Z,58.85
2019-02-19T23:51:39.569Z,59.34
2019-02-19T23:54:08.938Z,59.54
2019-02-19T23:56:38.370Z,60.01
2019-02-19T23:59:07.721Z,60.07
